createdAt,value
2023-04-06T00:00:41.318Z,72.00
2023-04-06T00:05:05.855Z,72.40
2023-04-06T00:09:30.077Z,72.50
2023-04-06T00:13:55.586Z,72.40
2023-04-06T00:18:20.590Z,72.30
2023-04-06T00:22:45.918Z,72.20
2023-04-06T00:27:10.105Z,72.10
2023-04-06T00:31:35.718Z,72.00
2023-04-06T00:36:00.349Z,71.70
2023-04-06T00:40:24.688Z,71.60
2023-04-06T00:44:49.090Z,71.50
2023-04-06T00:49:14.562Z,71.40
2023-04-06T00:53:38.607Z,71.40
2023-04-06T00:58:02.826Z,71.50
2023-04-06T01:02:32.312Z,71.30
2023-04-06T01:06:58.161Z,71.40
2023-04-06T01:11:29.424Z,71.60
2023-04-06T01:15:54.467Z,71.60
2023-04-06T01:20:48.076Z,71.80
2023-04-06T01:25:15.049Z,72.00
2023-04-06T01:29:47.339Z,72.20
2023-04-06T01:34:18.322Z,72.70
2023-04-06T01:38:43.948Z,72.90
2023-04-06T01:43:09.345Z,73.20
2023-04-06T01:47:53.596Z,73.60
2023-04-06T01:52:22.568Z,73.60
2023-04-06T01:56:51.582Z,73.80
2023-04-06T02:01:27.979Z,73.70
2023-04-06T02:05:54.661Z,73.80
2023-04-06T02:10:24.788Z,73.90
2023-04-06T02:14:50.152Z,74.00
2023-04-06T02:19:15.853Z,74.00
2023-04-06T02:23:37.452Z,74.00
2023-04-06T02:28:01.745Z,74.30
2023-04-06T02:32:27.407Z,74.50
2023-04-06T02:36:53.100Z,74.80
2023-04-06T02:41:17.262Z,75.00
2023-04-06T02:45:41.997Z,75.30
2023-04-06T02:50:08.548Z,75.60
2023-04-06T02:54:43.407Z,76.30
2023-04-06T02:59:08.844Z,76.40
2023-04-06T03:03:33.586Z,76.70
2023-04-06T03:07:58.067Z,76.90
2023-04-06T03:12:34.086Z,77.30
2023-04-06T03:17:24.392Z,77.60
2023-04-06T03:21:49.368Z,78.00
2023-04-06T03:26:15.713Z,78.20
2023-04-06T03:30:41.372Z,78.50
2023-04-06T03:35:07.144Z,78.50
2023-04-06T03:39:31.261Z,78.50
2023-04-06T03:43:52.243Z,78.50
2023-04-06T03:48:17.961Z,78.80
2023-04-06T03:52:42.396Z,79.10
2023-04-06T03:57:07.009Z,79.90
2023-04-06T04:01:31.197Z,80.20
2023-04-06T04:05:57.390Z,80.60
2023-04-06T04:10:23.445Z,80.90
2023-04-06T04:14:47.733Z,81.50
2023-04-06T04:19:11.862Z,82.30
2023-04-06T04:23:37.556Z,82.40
2023-04-06T04:28:02.462Z,83.20
2023-04-06T04:32:28.429Z,83.00
2023-04-06T04:36:54.460Z,83.40
2023-04-06T04:41:30.462Z,83.60
2023-04-06T04:45:55.558Z,83.90
2023-04-06T04:50:40.318Z,84.90
2023-04-06T04:55:04.848Z,87.30
2023-04-06T04:59:30.938Z,88.20
2023-04-06T05:04:01.652Z,88.70
2023-04-06T05:08:26.013Z,89.30
2023-04-06T05:12:50.244Z,90.00
2023-04-06T05:17:16.393Z,90.30
2023-04-06T05:21:40.848Z,90.90
2023-04-06T05:26:07.011Z,89.90
2023-04-06T05:30:31.302Z,88.00
2023-04-06T05:34:57.937Z,87.60
2023-04-06T05:39:22.856Z,84.90
2023-04-06T05:43:52.319Z,81.50
2023-04-06T05:48:16.736Z,78.30
2023-04-06T05:52:44.234Z,76.00
2023-04-06T05:57:11.103Z,73.70
2023-04-06T06:01:37.111Z,72.50
2023-04-06T06:06:05.218Z,72.30
2023-04-06T06:10:45.196Z,70.20
2023-04-06T06:15:11.770Z,68.70
2023-04-06T06:19:40.903Z,68.30
2023-04-06T06:24:06.795Z,66.50
2023-04-06T06:28:32.690Z,65.20
2023-04-06T06:32:57.233Z,65.30
2023-04-06T06:37:22.258Z,62.10
2023-04-06T06:41:47.556Z,58.60
2023-04-06T06:46:13.761Z,56.20
2023-04-06T06:50:38.836Z,53.60
2023-04-06T06:55:03.655Z,53.30
2023-04-06T06:59:28.185Z,53.70
2023-04-06T07:03:54.154Z,54.50
2023-04-06T07:08:18.553Z,54.60
2023-04-06T07:12:43.202Z,54.90
2023-04-06T07:17:07.461Z,55.80
2023-04-06T07:21:37.263Z,53.10
2023-04-06T07:26:03.000Z,50.50
2023-04-06T07:30:29.718Z,50.80
2023-04-06T07:34:56.289Z,46.40
2023-04-06T07:39:23.130Z,46.00
2023-04-06T07:43:47.412Z,42.10
2023-04-06T07:48:12.117Z,43.00
2023-04-06T07:52:38.275Z,43.20
2023-04-06T07:57:05.737Z,41.10
2023-04-06T08:01:30.554Z,38.20
2023-04-06T08:05:54.641Z,37.50
2023-04-06T08:10:18.851Z,38.20
2023-04-06T08:14:45.232Z,36.20
2023-04-06T08:19:10.549Z,34.50
2023-04-06T08:23:36.147Z,34.40
2023-04-06T08:28:00.664Z,34.40
2023-04-06T08:32:27.821Z,33.90
2023-04-06T08:36:52.311Z,33.60
2023-04-06T08:41:17.110Z,31.90
2023-04-06T08:45:42.822Z,30.60
2023-04-06T08:50:12.331Z,30.80
2023-04-06T08:54:36.955Z,31.30
2023-04-06T08:59:01.868Z,30.50
2023-04-06T09:03:28.183Z,29.80
2023-04-06T09:07:55.071Z,30.30
2023-04-06T09:12:26.647Z,30.70
2023-04-06T09:16:50.835Z,31.40
2023-04-06T09:21:15.581Z,30.10
2023-04-06T09:25:41.110Z,30.20
2023-04-06T09:30:07.846Z,29.40
2023-04-06T09:34:32.002Z,28.00
2023-04-06T09:38:58.412Z,28.70
2023-04-06T09:43:33.127Z,28.30
2023-04-06T09:47:57.582Z,27.80
2023-04-06T09:52:23.516Z,27.40
2023-04-06T09:56:49.643Z,27.50
2023-04-06T10:01:18.137Z,26.10
2023-04-06T10:05:48.662Z,25.90
2023-04-06T10:10:13.978Z,25.90
2023-04-06T10:14:38.044Z,26.50
2023-04-06T10:19:12.144Z,26.10
2023-04-06T10:23:38.602Z,26.20
2023-04-06T10:28:03.833Z,26.50
2023-04-06T10:32:34.879Z,27.40
2023-04-06T10:37:00.331Z,28.10
2023-04-06T10:41:24.669Z,28.50
2023-04-06T10:45:58.282Z,27.60
2023-04-06T10:50:23.312Z,27.00
2023-04-06T10:54:50.533Z,27.30
2023-04-06T10:59:14.956Z,28.30
2023-04-06T11:03:45.997Z,28.20
2023-04-06T11:08:10.095Z,27.50
2023-04-06T11:12:38.759Z,27.70
2023-04-06T11:17:05.496Z,28.20
2023-04-06T11:21:41.234Z,27.20
2023-04-06T11:26:13.583Z,27.20
2023-04-06T11:30:39.892Z,26.60
2023-04-06T11:35:06.855Z,26.80
2023-04-06T11:39:34.093Z,27.70
2023-04-06T11:44:00.547Z,28.00
2023-04-06T11:48:29.454Z,27.60
2023-04-06T11:53:02.896Z,26.70
2023-04-06T11:57:29.577Z,27.40
2023-04-06T12:01:55.715Z,27.80
2023-04-06T12:06:23.359Z,28.30
2023-04-06T12:10:48.954Z,28.50
2023-04-06T12:15:14.782Z,28.20
2023-04-06T12:19:40.292Z,27.90
2023-04-06T12:24:08.347Z,28.00
2023-04-06T12:28:34.955Z,28.40
2023-04-06T12:33:01.693Z,29.00
2023-04-06T12:37:28.594Z,29.70
2023-04-06T12:41:56.692Z,30.20
2023-04-06T12:46:23.002Z,30.60
2023-04-06T12:50:58.261Z,30.60
2023-04-06T12:55:25.274Z,31.10
2023-04-06T12:59:53.343Z,31.80
2023-04-06T13:04:20.054Z,32.30
2023-04-06T13:08:46.825Z,32.60
2023-04-06T13:13:13.405Z,32.80
2023-04-06T13:17:42.007Z,33.10
2023-04-06T13:22:08.024Z,34.10
2023-04-06T13:26:34.868Z,34.20
2023-04-06T13:31:03.488Z,34.70
2023-04-06T13:35:31.731Z,35.20
2023-04-06T13:39:58.401Z,35.10
2023-04-06T13:44:23.717Z,35.50
2023-04-06T13:48:49.060Z,35.70
2023-04-06T13:53:14.749Z,35.60
2023-04-06T13:57:38.890Z,35.80
2023-04-06T14:02:04.880Z,36.70
2023-04-06T14:06:31.722Z,36.10
2023-04-06T14:10:57.610Z,36.10
2023-04-06T14:15:23.014Z,36.30
2023-04-06T14:19:47.132Z,36.40
2023-04-06T14:24:11.470Z,36.90
2023-04-06T14:28:37.972Z,36.70
2023-04-06T14:33:03.258Z,36.60
2023-04-06T14:37:27.334Z,36.20
2023-04-06T14:41:53.006Z,37.20
2023-04-06T14:46:21.038Z,36.50
2023-04-06T14:50:56.778Z,36.80
2023-04-06T14:55:22.372Z,36.70
2023-04-06T14:59:46.576Z,36.60
2023-04-06T15:04:12.019Z,36.50
2023-04-06T15:08:36.029Z,36.40
2023-04-06T15:12:59.882Z,36.40
2023-04-06T15:17:24.139Z,36.50
2023-04-06T15:21:49.491Z,36.70
2023-04-06T15:26:13.395Z,37.00
2023-04-06T15:30:38.173Z,37.30
2023-04-06T15:35:11.421Z,37.50
2023-04-06T15:39:41.312Z,37.30
2023-04-06T15:44:07.144Z,37.20
2023-04-06T15:48:35.268Z,37.20
2023-04-06T15:52:59.564Z,37.10
2023-04-06T15:57:32.875Z,37.10
2023-04-06T16:01:57.120Z,37.10
2023-04-06T16:06:21.174Z,37.10
2023-04-06T16:10:48.368Z,37.20
2023-04-06T16:15:18.531Z,37.50
2023-04-06T16:19:44.134Z,37.60
2023-04-06T16:24:12.477Z,37.50
2023-04-06T16:28:36.373Z,37.60
2023-04-06T16:33:02.344Z,38.60
2023-04-06T16:37:29.716Z,37.90
2023-04-06T16:41:53.857Z,38.00
2023-04-06T16:46:22.166Z,39.80
2023-04-06T16:50:48.339Z,40.90
2023-04-06T16:55:13.352Z,41.40
2023-04-06T16:59:40.576Z,41.90
2023-04-06T17:04:04.674Z,42.80
2023-04-06T17:08:30.180Z,43.10
2023-04-06T17:12:56.343Z,43.70
2023-04-06T17:17:24.266Z,44.00
2023-04-06T17:21:49.320Z,43.60
2023-04-06T17:26:15.607Z,44.00
2023-04-06T17:30:42.716Z,44.50
2023-04-06T17:35:07.727Z,45.00
2023-04-06T17:39:31.797Z,45.60
2023-04-06T17:43:57.787Z,46.10
2023-04-06T17:48:22.109Z,47.10
2023-04-06T17:52:46.474Z,47.80
2023-04-06T17:57:10.585Z,48.10
2023-04-06T18:01:36.279Z,48.50
2023-04-06T18:06:10.932Z,49.00
2023-04-06T18:10:39.020Z,49.20
2023-04-06T18:15:03.305Z,49.40
2023-04-06T18:19:31.249Z,49.50
2023-04-06T18:23:49.534Z,49.60
2023-04-06T18:28:07.735Z,49.90
2023-04-06T18:32:30.208Z,50.10
2023-04-06T18:36:56.143Z,50.30
2023-04-06T18:41:21.003Z,50.40
2023-04-06T18:45:44.957Z,50.50
2023-04-06T18:50:09.579Z,50.90
2023-04-06T18:54:34.998Z,51.20
2023-04-06T18:58:59.093Z,51.50
2023-04-06T19:03:23.120Z,51.80
2023-04-06T19:07:52.144Z,52.50
2023-04-06T19:12:18.171Z,52.30
2023-04-06T19:16:51.815Z,52.40
2023-04-06T19:21:17.711Z,52.50
2023-04-06T19:25:44.260Z,52.60
2023-04-06T19:30:10.996Z,52.90
2023-04-06T19:34:35.156Z,53.00
2023-04-06T19:38:59.497Z,53.50
2023-04-06T19:43:23.366Z,53.60
2023-04-06T19:47:48.817Z,54.40
2023-04-06T19:52:13.170Z,53.80
2023-04-06T19:56:36.991Z,53.80
2023-04-06T20:01:01.473Z,53.90
2023-04-06T20:05:26.841Z,53.80
2023-04-06T20:09:50.856Z,54.70
2023-04-06T20:14:15.765Z,53.90
2023-04-06T20:18:39.564Z,53.90
2023-04-06T20:23:04.705Z,54.00
2023-04-06T20:27:28.574Z,53.80
2023-04-06T20:31:52.504Z,53.90
2023-04-06T20:36:16.830Z,53.90
2023-04-06T20:40:45.497Z,53.70
2023-04-06T20:45:12.160Z,53.60
2023-04-06T20:49:37.397Z,54.30
2023-04-06T20:54:01.666Z,53.60
2023-04-06T20:58:27.300Z,53.70
2023-04-06T21:02:51.509Z,53.70
2023-04-06T21:07:15.765Z,54.00
2023-04-06T21:11:39.818Z,54.30
2023-04-06T21:16:07.313Z,54.30
2023-04-06T21:20:31.674Z,54.50
2023-04-06T21:24:55.820Z,54.60
2023-04-06T21:29:20.280Z,54.80
2023-04-06T21:33:45.924Z,55.00
2023-04-06T21:38:09.982Z,55.40
2023-04-06T21:42:34.366Z,55.50
2023-04-06T21:46:58.942Z,55.60
2023-04-06T21:51:24.786Z,55.80
2023-04-06T21:55:49.540Z,55.90
2023-04-06T22:00:15.110Z,56.20
2023-04-06T22:04:39.324Z,56.70
2023-04-06T22:09:05.565Z,56.90
2023-04-06T22:13:30.243Z,56.90
2023-04-06T22:17:54.246Z,57.10
2023-04-06T22:22:18.143Z,57.10
2023-04-06T22:26:43.861Z,57.30
2023-04-06T22:31:07.822Z,57.00
2023-04-06T22:35:31.985Z,58.00
2023-04-06T22:39:56.415Z,58.10
2023-04-06T22:44:21.613Z,58.40
2023-04-06T22:48:45.627Z,58.70
2023-04-06T22:53:09.425Z,58.90
2023-04-06T22:57:33.333Z,59.90
2023-04-06T23:01:58.588Z,59.50
2023-04-06T23:06:22.693Z,59.60
2023-04-06T23:10:46.559Z,59.70
2023-04-06T23:15:11.750Z,60.30
2023-04-06T23:19:37.143Z,60.40
2023-04-06T23:24:01.779Z,60.60
2023-04-06T23:28:26.127Z,60.90
2023-04-06T23:32:50.015Z,61.00
2023-04-06T23:37:15.391Z,60.90
2023-04-06T23:41:39.156Z,60.90
2023-04-06T23:46:02.925Z,61.30
2023-04-06T23:50:27.061Z,61.70
2023-04-06T23:54:52.538Z,61.90
2023-04-06T23:59:16.369Z,61.80
